sensor_id;sensor_type;location;lat;lon;timestamp;pressure;altitude;pressure_sealevel;temperature;humidity
26563;BME280;14217;50.986;5.826;2022-10-13T00:00:15;101388.09;;;20.87;41.77
26563;BME280;14217;50.986;5.826;2022-10-13T00:05:17;101382.50;;;20.94;41.41
26563;BME280;14217;50.986;5.826;2022-10-13T00:10:19;101377.63;;;20.83;41.55
26563;BME280;14217;50.986;5.826;2022-10-13T00:15:21;101379.88;;;20.73;41.89
26563;BME280;14217;50.986;5.826;2022-10-13T00:20:26;101367.94;;;20.82;42.08
26563;BME280;14217;50.986;5.826;2022-10-13T00:25:28;101361.88;;;20.78;42.06
26563;BME280;14217;50.986;5.826;2022-10-13T00:30:33;101369.84;;;20.78;41.89
26563;BME280;14217;50.986;5.826;2022-10-13T00:35:43;101354.47;;;20.85;41.74
26563;BME280;14217;50.986;5.826;2022-10-13T00:40:53;101348.28;;;20.84;41.61
26563;BME280;14217;50.986;5.826;2022-10-13T00:45:55;101352.00;;;20.80;41.87
26563;BME280;14217;50.986;5.826;2022-10-13T00:50:57;101353.53;;;20.86;41.84
26563;BME280;14217;50.986;5.826;2022-10-13T00:55:59;101349.78;;;20.90;41.67
26563;BME280;14217;50.986;5.826;2022-10-13T01:01:03;101341.75;;;20.91;41.88
26563;BME280;14217;50.986;5.826;2022-10-13T01:06:05;101350.94;;;20.84;42.94
26563;BME280;14217;50.986;5.826;2022-10-13T01:11:24;101333.03;;;20.88;42.63
26563;BME280;14217;50.986;5.826;2022-10-13T01:32:34;101315.28;;;20.87;42.30
26563;BME280;14217;50.986;5.826;2022-10-13T01:38:04;101309.50;;;20.79;42.47
26563;BME280;14217;50.986;5.826;2022-10-13T01:43:22;101313.66;;;20.84;42.41
26563;BME280;14217;50.986;5.826;2022-10-13T01:48:26;101311.84;;;20.85;42.20
26563;BME280;14217;50.986;5.826;2022-10-13T01:53:29;101305.94;;;20.78;42.49
26563;BME280;14217;50.986;5.826;2022-10-13T01:58:33;101310.47;;;20.76;42.53
26563;BME280;14217;50.986;5.826;2022-10-13T02:09:16;101304.97;;;20.81;42.42
26563;BME280;14217;50.986;5.826;2022-10-13T02:14:27;101304.28;;;20.76;42.42
26563;BME280;14217;50.986;5.826;2022-10-13T02:19:34;101303.38;;;20.77;42.22
26563;BME280;14217;50.986;5.826;2022-10-13T02:24:36;101292.50;;;20.81;42.18
26563;BME280;14217;50.986;5.826;2022-10-13T02:29:52;101288.03;;;20.82;42.19
26563;BME280;14217;50.986;5.826;2022-10-13T02:34:54;101276.50;;;20.81;42.14
26563;BME280;14217;50.986;5.826;2022-10-13T02:39:56;101277.53;;;20.79;42.28
26563;BME280;14217;50.986;5.826;2022-10-13T02:44:58;101266.56;;;20.85;42.17
26563;BME280;14217;50.986;5.826;2022-10-13T02:50:00;101259.47;;;20.85;42.05
26563;BME280;14217;50.986;5.826;2022-10-13T02:55:02;101242.47;;;20.88;42.10
26563;BME280;14217;50.986;5.826;2022-10-13T03:00:05;101250.97;;;20.77;42.34
26563;BME280;14217;50.986;5.826;2022-10-13T03:05:08;101252.44;;;20.83;42.30
26563;BME280;14217;50.986;5.826;2022-10-13T03:10:10;101241.47;;;20.71;42.47
26563;BME280;14217;50.986;5.826;2022-10-13T03:15:12;101249.72;;;20.84;42.11
26563;BME280;14217;50.986;5.826;2022-10-13T03:20:14;101250.00;;;20.78;42.10
26563;BME280;14217;50.986;5.826;2022-10-13T03:25:16;101247.50;;;20.75;42.23
26563;BME280;14217;50.986;5.826;2022-10-13T03:30:18;101256.28;;;20.77;42.08
26563;BME280;14217;50.986;5.826;2022-10-13T03:35:20;101252.56;;;20.81;42.24
26563;BME280;14217;50.986;5.826;2022-10-13T03:40:22;101244.63;;;20.80;42.09
26563;BME280;14217;50.986;5.826;2022-10-13T03:45:25;101224.16;;;20.80;41.95
26563;BME280;14217;50.986;5.826;2022-10-13T03:50:27;101247.06;;;20.84;41.85
26563;BME280;14217;50.986;5.826;2022-10-13T03:55:29;101235.63;;;20.82;42.22
26563;BME280;14217;50.986;5.826;2022-10-13T04:00:31;101231.00;;;20.86;41.99
26563;BME280;14217;50.986;5.826;2022-10-13T04:05:33;101238.22;;;20.84;41.91
26563;BME280;14217;50.986;5.826;2022-10-13T04:10:35;101230.28;;;20.82;42.31
26563;BME280;14217;50.986;5.826;2022-10-13T04:15:38;101231.38;;;20.78;42.14
26563;BME280;14217;50.986;5.826;2022-10-13T04:20:40;101232.63;;;20.71;42.54
26563;BME280;14217;50.986;5.826;2022-10-13T04:25:42;101230.44;;;20.79;42.35
26563;BME280;14217;50.986;5.826;2022-10-13T04:30:44;101224.34;;;20.77;42.28
26563;BME280;14217;50.986;5.826;2022-10-13T04:35:50;101219.00;;;20.77;42.37
26563;BME280;14217;50.986;5.826;2022-10-13T04:40:52;101218.63;;;20.85;42.11
26563;BME280;14217;50.986;5.826;2022-10-13T04:46:03;101212.16;;;20.71;42.44
26563;BME280;14217;50.986;5.826;2022-10-13T04:51:08;101202.75;;;20.83;42.02
26563;BME280;14217;50.986;5.826;2022-10-13T04:56:13;101199.28;;;20.81;42.18
26563;BME280;14217;50.986;5.826;2022-10-13T05:01:20;101188.63;;;20.81;42.41
26563;BME280;14217;50.986;5.826;2022-10-13T05:06:28;101191.13;;;20.84;42.19
26563;BME280;14217;50.986;5.826;2022-10-13T05:11:30;101184.16;;;20.82;42.10
26563;BME280;14217;50.986;5.826;2022-10-13T05:16:32;101188.06;;;20.75;42.52
26563;BME280;14217;50.986;5.826;2022-10-13T05:21:35;101179.63;;;20.84;42.18
26563;BME280;14217;50.986;5.826;2022-10-13T05:26:37;101180.88;;;20.77;42.57
26563;BME280;14217;50.986;5.826;2022-10-13T05:31:40;101180.09;;;20.75;42.24
26563;BME280;14217;50.986;5.826;2022-10-13T05:36:41;101173.44;;;20.83;42.31
26563;BME280;14217;50.986;5.826;2022-10-13T05:41:43;101176.34;;;20.79;42.42
26563;BME280;14217;50.986;5.826;2022-10-13T05:46:45;101162.13;;;20.78;42.55
26563;BME280;14217;50.986;5.826;2022-10-13T05:51:53;101160.72;;;20.71;42.47
26563;BME280;14217;50.986;5.826;2022-10-13T05:57:02;101162.59;;;20.69;42.87
26563;BME280;14217;50.986;5.826;2022-10-13T06:02:06;101170.00;;;20.81;42.37
26563;BME280;14217;50.986;5.826;2022-10-13T06:07:10;101161.34;;;20.76;42.25
26563;BME280;14217;50.986;5.826;2022-10-13T06:12:12;101153.59;;;20.71;42.82
26563;BME280;14217;50.986;5.826;2022-10-13T06:17:15;101154.00;;;20.81;42.81
26563;BME280;14217;50.986;5.826;2022-10-13T06:22:17;101161.41;;;20.94;42.33
26563;BME280;14217;50.986;5.826;2022-10-13T06:27:19;101149.97;;;20.91;42.47
26563;BME280;14217;50.986;5.826;2022-10-13T06:32:21;101146.34;;;20.92;42.60
26563;BME280;14217;50.986;5.826;2022-10-13T06:37:23;101146.50;;;20.89;43.13
26563;BME280;14217;50.986;5.826;2022-10-13T06:42:28;101143.75;;;20.91;43.51
26563;BME280;14217;50.986;5.826;2022-10-13T06:47:32;101149.06;;;20.91;43.27
26563;BME280;14217;50.986;5.826;2022-10-13T06:52:34;101147.06;;;20.96;42.52
26563;BME280;14217;50.986;5.826;2022-10-13T06:57:35;101156.13;;;20.92;42.78
26563;BME280;14217;50.986;5.826;2022-10-13T07:02:37;101162.19;;;20.96;42.72
26563;BME280;14217;50.986;5.826;2022-10-13T07:07:40;101166.19;;;20.68;45.22
26563;BME280;14217;50.986;5.826;2022-10-13T07:12:42;101166.53;;;20.79;44.84
26563;BME280;14217;50.986;5.826;2022-10-13T07:17:44;101171.41;;;20.88;44.74
26563;BME280;14217;50.986;5.826;2022-10-13T07:22:46;101173.03;;;20.91;43.95
26563;BME280;14217;50.986;5.826;2022-10-13T07:27:48;101172.06;;;20.94;43.67
26563;BME280;14217;50.986;5.826;2022-10-13T07:32:50;101168.50;;;20.93;43.86
26563;BME280;14217;50.986;5.826;2022-10-13T07:37:52;101181.69;;;20.96;43.44
26563;BME280;14217;50.986;5.826;2022-10-13T07:42:55;101171.56;;;20.85;44.16
26563;BME280;14217;50.986;5.826;2022-10-13T07:47:57;101168.13;;;20.83;43.96
26563;BME280;14217;50.986;5.826;2022-10-13T07:52:59;101166.94;;;20.89;43.96
26563;BME280;14217;50.986;5.826;2022-10-13T07:58:02;101168.81;;;20.87;43.82
26563;BME280;14217;50.986;5.826;2022-10-13T08:03:04;101162.13;;;20.78;44.01
26563;BME280;14217;50.986;5.826;2022-10-13T08:08:06;101163.34;;;20.90;43.35
26563;BME280;14217;50.986;5.826;2022-10-13T08:13:09;101170.06;;;20.97;43.02
26563;BME280;14217;50.986;5.826;2022-10-13T08:18:13;101167.19;;;21.02;42.94
26563;BME280;14217;50.986;5.826;2022-10-13T08:23:15;101162.31;;;20.92;42.93
26563;BME280;14217;50.986;5.826;2022-10-13T08:28:19;101147.84;;;20.98;43.11
26563;BME280;14217;50.986;5.826;2022-10-13T08:33:21;101154.09;;;20.97;42.87
26563;BME280;14217;50.986;5.826;2022-10-13T08:38:23;101146.81;;;21.01;42.94
26563;BME280;14217;50.986;5.826;2022-10-13T08:43:26;101151.38;;;20.99;42.90
26563;BME280;14217;50.986;5.826;2022-10-13T08:48:31;101148.53;;;21.02;42.77
26563;BME280;14217;50.986;5.826;2022-10-13T08:53:36;101140.78;;;20.97;42.48
26563;BME280;14217;50.986;5.826;2022-10-13T08:58:41;101145.13;;;21.00;42.37
26563;BME280;14217;50.986;5.826;2022-10-13T09:09:22;101135.31;;;21.00;42.58
26563;BME280;14217;50.986;5.826;2022-10-13T09:14:27;101136.47;;;20.95;42.68
26563;BME280;14217;50.986;5.826;2022-10-13T09:19:32;101139.84;;;20.98;42.59
26563;BME280;14217;50.986;5.826;2022-10-13T09:24:37;101141.72;;;20.96;42.25
26563;BME280;14217;50.986;5.826;2022-10-13T09:29:40;101138.81;;;21.01;42.26
26563;BME280;14217;50.986;5.826;2022-10-13T09:34:42;101133.31;;;21.04;42.25
26563;BME280;14217;50.986;5.826;2022-10-13T09:39:44;101131.38;;;20.73;43.96
26563;BME280;14217;50.986;5.826;2022-10-13T09:44:54;101118.72;;;20.59;44.99
26563;BME280;14217;50.986;5.826;2022-10-13T09:50:13;101116.38;;;20.70;44.55
26563;BME280;14217;50.986;5.826;2022-10-13T09:55:32;101122.84;;;20.83;44.33
26563;BME280;14217;50.986;5.826;2022-10-13T10:00:35;101123.53;;;20.87;44.17
26563;BME280;14217;50.986;5.826;2022-10-13T10:05:56;101122.75;;;20.85;44.10
26563;BME280;14217;50.986;5.826;2022-10-13T10:11:04;101115.69;;;20.84;44.15
26563;BME280;14217;50.986;5.826;2022-10-13T10:21:39;101102.44;;;20.82;43.91
26563;BME280;14217;50.986;5.826;2022-10-13T10:26:54;101102.44;;;20.82;43.71
26563;BME280;14217;50.986;5.826;2022-10-13T10:37:23;101097.00;;;20.85;43.61
26563;BME280;14217;50.986;5.826;2022-10-13T10:48:37;101094.81;;;20.94;43.41
26563;BME280;14217;50.986;5.826;2022-10-13T10:53:57;101088.59;;;20.93;43.09
26563;BME280;14217;50.986;5.826;2022-10-13T11:04:48;101066.97;;;20.99;42.89
26563;BME280;14217;50.986;5.826;2022-10-13T11:15:12;101052.88;;;20.97;42.93
26563;BME280;14217;50.986;5.826;2022-10-13T11:25:35;101053.66;;;20.99;42.79
26563;BME280;14217;50.986;5.826;2022-10-13T11:35:53;101037.78;;;20.98;43.34
26563;BME280;14217;50.986;5.826;2022-10-13T11:41:18;101033.44;;;20.95;43.28
26563;BME280;14217;50.986;5.826;2022-10-13T11:56:54;101029.84;;;20.96;43.33
26563;BME280;14217;50.986;5.826;2022-10-13T12:07:08;101018.34;;;20.96;42.96
26563;BME280;14217;50.986;5.826;2022-10-13T12:12:16;101014.34;;;21.04;42.99
26563;BME280;14217;50.986;5.826;2022-10-13T12:22:28;101006.59;;;20.82;43.98
26563;BME280;14217;50.986;5.826;2022-10-13T12:27:40;101005.34;;;20.89;43.81
26563;BME280;14217;50.986;5.826;2022-10-13T12:32:48;100999.84;;;20.92;43.85
26563;BME280;14217;50.986;5.826;2022-10-13T12:37:51;100990.69;;;20.98;43.31
26563;BME280;14217;50.986;5.826;2022-10-13T12:42:54;100989.69;;;20.83;43.88
26563;BME280;14217;50.986;5.826;2022-10-13T12:47:56;100986.19;;;20.99;43.31
26563;BME280;14217;50.986;5.826;2022-10-13T12:53:11;100985.50;;;20.95;43.36
26563;BME280;14217;50.986;5.826;2022-10-13T12:58:20;100988.69;;;21.02;43.36
26563;BME280;14217;50.986;5.826;2022-10-13T13:03:26;100986.91;;;21.02;43.55
26563;BME280;14217;50.986;5.826;2022-10-13T13:08:29;100980.56;;;21.05;43.25
26563;BME280;14217;50.986;5.826;2022-10-13T13:13:34;100975.22;;;21.05;43.22
26563;BME280;14217;50.986;5.826;2022-10-13T13:18:40;100968.63;;;21.12;42.83
26563;BME280;14217;50.986;5.826;2022-10-13T13:23:45;100966.69;;;20.98;43.11
26563;BME280;14217;50.986;5.826;2022-10-13T13:28:55;100974.25;;;21.06;42.91
26563;BME280;14217;50.986;5.826;2022-10-13T13:33:57;100961.31;;;20.82;43.44
26563;BME280;14217;50.986;5.826;2022-10-13T13:38:59;100960.59;;;20.96;43.02
26563;BME280;14217;50.986;5.826;2022-10-13T13:44:01;100956.66;;;21.03;43.15
26563;BME280;14217;50.986;5.826;2022-10-13T13:49:03;100956.72;;;21.02;43.02
26563;BME280;14217;50.986;5.826;2022-10-13T13:54:05;100956.91;;;20.99;42.96
26563;BME280;14217;50.986;5.826;2022-10-13T13:59:07;100951.97;;;20.91;43.41
26563;BME280;14217;50.986;5.826;2022-10-13T14:04:09;100947.19;;;20.98;43.11
26563;BME280;14217;50.986;5.826;2022-10-13T14:09:11;100951.41;;;21.02;42.99
26563;BME280;14217;50.986;5.826;2022-10-13T14:14:13;100959.06;;;21.08;42.83
26563;BME280;14217;50.986;5.826;2022-10-13T14:19:15;100972.72;;;21.02;42.81
26563;BME280;14217;50.986;5.826;2022-10-13T14:24:18;100973.50;;;21.04;43.22
26563;BME280;14217;50.986;5.826;2022-10-13T14:29:20;100965.66;;;21.01;43.20
26563;BME280;14217;50.986;5.826;2022-10-13T14:34:22;100969.91;;;21.05;42.77
26563;BME280;14217;50.986;5.826;2022-10-13T14:39:24;100973.59;;;21.02;42.91
26563;BME280;14217;50.986;5.826;2022-10-13T14:44:26;100963.72;;;21.04;43.04
26563;BME280;14217;50.986;5.826;2022-10-13T14:49:28;100966.06;;;21.10;43.48
26563;BME280;14217;50.986;5.826;2022-10-13T14:54:30;100967.84;;;21.10;43.74
26563;BME280;14217;50.986;5.826;2022-10-13T14:59:32;100967.31;;;21.03;43.87
26563;BME280;14217;50.986;5.826;2022-10-13T15:04:34;100957.59;;;21.02;43.64
26563;BME280;14217;50.986;5.826;2022-10-13T15:09:36;100963.41;;;21.10;43.79
26563;BME280;14217;50.986;5.826;2022-10-13T15:14:53;100953.38;;;20.98;44.04
26563;BME280;14217;50.986;5.826;2022-10-13T15:19:55;100949.88;;;20.98;45.20
26563;BME280;14217;50.986;5.826;2022-10-13T15:24:57;100946.44;;;20.96;45.35
26563;BME280;14217;50.986;5.826;2022-10-13T15:29:59;100939.75;;;21.04;45.04
26563;BME280;14217;50.986;5.826;2022-10-13T15:35:01;100940.41;;;21.08;45.08
26563;BME280;14217;50.986;5.826;2022-10-13T15:40:03;100948.97;;;20.97;45.36
26563;BME280;14217;50.986;5.826;2022-10-13T15:45:05;100945.41;;;21.14;44.67
26563;BME280;14217;50.986;5.826;2022-10-13T15:50:11;100942.66;;;21.00;44.64
26563;BME280;14217;50.986;5.826;2022-10-13T15:55:13;100941.53;;;21.04;44.84
26563;BME280;14217;50.986;5.826;2022-10-13T16:00:15;100942.47;;;21.03;44.73
26563;BME280;14217;50.986;5.826;2022-10-13T16:05:17;100939.22;;;20.98;44.68
26563;BME280;14217;50.986;5.826;2022-10-13T16:10:19;100929.34;;;21.00;44.86
26563;BME280;14217;50.986;5.826;2022-10-13T16:15:22;100927.59;;;20.99;44.55
26563;BME280;14217;50.986;5.826;2022-10-13T16:20:24;100930.44;;;20.96;44.96
26563;BME280;14217;50.986;5.826;2022-10-13T16:25:26;100928.31;;;21.02;45.33
26563;BME280;14217;50.986;5.826;2022-10-13T16:30:30;100941.44;;;21.05;44.99
26563;BME280;14217;50.986;5.826;2022-10-13T16:35:32;100941.94;;;20.96;45.49
26563;BME280;14217;50.986;5.826;2022-10-13T16:40:36;100939.34;;;20.95;45.51
26563;BME280;14217;50.986;5.826;2022-10-13T16:45:39;100936.03;;;21.07;45.43
26563;BME280;14217;50.986;5.826;2022-10-13T16:51:05;100947.88;;;21.01;45.67
26563;BME280;14217;50.986;5.826;2022-10-13T16:56:09;100948.97;;;20.97;45.57
26563;BME280;14217;50.986;5.826;2022-10-13T17:01:11;100940.31;;;20.94;45.61
26563;BME280;14217;50.986;5.826;2022-10-13T17:06:14;100954.50;;;20.94;45.48
26563;BME280;14217;50.986;5.826;2022-10-13T17:11:22;100962.09;;;20.84;46.01
26563;BME280;14217;50.986;5.826;2022-10-13T17:16:24;100967.63;;;20.97;45.54
26563;BME280;14217;50.986;5.826;2022-10-13T17:21:27;100974.94;;;20.94;45.37
26563;BME280;14217;50.986;5.826;2022-10-13T17:26:29;100978.13;;;21.00;45.38
26563;BME280;14217;50.986;5.826;2022-10-13T17:31:32;100979.00;;;21.01;45.17
26563;BME280;14217;50.986;5.826;2022-10-13T17:36:34;100992.16;;;20.86;45.72
26563;BME280;14217;50.986;5.826;2022-10-13T17:41:36;100994.38;;;20.96;45.09
26563;BME280;14217;50.986;5.826;2022-10-13T17:46:38;100994.50;;;20.92;45.39
26563;BME280;14217;50.986;5.826;2022-10-13T17:51:41;100991.91;;;20.91;45.53
26563;BME280;14217;50.986;5.826;2022-10-13T17:56:46;101000.88;;;20.90;45.29
26563;BME280;14217;50.986;5.826;2022-10-13T18:01:49;101002.34;;;20.96;45.13
26563;BME280;14217;50.986;5.826;2022-10-13T18:06:51;100996.69;;;21.02;44.82
26563;BME280;14217;50.986;5.826;2022-10-13T18:11:53;100997.56;;;21.02;44.76
26563;BME280;14217;50.986;5.826;2022-10-13T18:16:55;101006.66;;;20.98;45.32
26563;BME280;14217;50.986;5.826;2022-10-13T18:21:57;101001.34;;;20.98;45.30
26563;BME280;14217;50.986;5.826;2022-10-13T18:26:59;100993.59;;;20.94;45.28
26563;BME280;14217;50.986;5.826;2022-10-13T18:32:01;100995.03;;;20.99;45.21
26563;BME280;14217;50.986;5.826;2022-10-13T18:37:03;101005.25;;;20.91;45.47
26563;BME280;14217;50.986;5.826;2022-10-13T18:42:06;101006.47;;;21.01;45.04
26563;BME280;14217;50.986;5.826;2022-10-13T18:47:08;100994.38;;;20.96;45.34
26563;BME280;14217;50.986;5.826;2022-10-13T18:52:10;100994.13;;;21.00;45.28
26563;BME280;14217;50.986;5.826;2022-10-13T18:57:12;101001.34;;;20.98;45.34
26563;BME280;14217;50.986;5.826;2022-10-13T19:02:14;100997.72;;;20.99;45.43
26563;BME280;14217;50.986;5.826;2022-10-13T19:07:16;101012.22;;;20.94;45.57
26563;BME280;14217;50.986;5.826;2022-10-13T19:12:19;101010.34;;;20.96;45.50
26563;BME280;14217;50.986;5.826;2022-10-13T19:17:21;101003.34;;;20.93;45.36
26563;BME280;14217;50.986;5.826;2022-10-13T19:22:24;101008.31;;;20.83;45.48
26563;BME280;14217;50.986;5.826;2022-10-13T19:27:26;101002.34;;;20.96;45.33
26563;BME280;14217;50.986;5.826;2022-10-13T19:32:28;100999.91;;;20.91;45.47
26563;BME280;14217;50.986;5.826;2022-10-13T19:37:30;101016.13;;;21.04;45.13
26563;BME280;14217;50.986;5.826;2022-10-13T19:42:32;101008.38;;;20.99;45.30
26563;BME280;14217;50.986;5.826;2022-10-13T19:47:34;101003.75;;;21.03;44.89
26563;BME280;14217;50.986;5.826;2022-10-13T19:52:36;101009.56;;;20.94;45.18
26563;BME280;14217;50.986;5.826;2022-10-13T19:57:38;101017.13;;;21.01;44.80
26563;BME280;14217;50.986;5.826;2022-10-13T20:02:40;101012.31;;;20.92;45.46
26563;BME280;14217;50.986;5.826;2022-10-13T20:07:41;101000.31;;;21.01;45.07
26563;BME280;14217;50.986;5.826;2022-10-13T20:12:43;101011.81;;;21.01;45.13
26563;BME280;14217;50.986;5.826;2022-10-13T20:17:45;101005.47;;;21.04;45.11
26563;BME280;14217;50.986;5.826;2022-10-13T20:22:47;101004.59;;;21.03;45.27
26563;BME280;14217;50.986;5.826;2022-10-13T20:27:49;101010.78;;;21.04;45.05
26563;BME280;14217;50.986;5.826;2022-10-13T20:32:51;101011.03;;;20.99;45.01
26563;BME280;14217;50.986;5.826;2022-10-13T20:37:53;101009.78;;;21.06;44.90
26563;BME280;14217;50.986;5.826;2022-10-13T20:42:55;101004.69;;;21.02;44.85
26563;BME280;14217;50.986;5.826;2022-10-13T20:47:57;101000.91;;;21.06;44.60
26563;BME280;14217;50.986;5.826;2022-10-13T20:52:59;101006.22;;;21.06;44.90
26563;BME280;14217;50.986;5.826;2022-10-13T20:58:00;101008.75;;;21.09;44.42
26563;BME280;14217;50.986;5.826;2022-10-13T21:03:02;101002.72;;;21.05;44.81
26563;BME280;14217;50.986;5.826;2022-10-13T21:08:04;101005.63;;;21.01;44.95
26563;BME280;14217;50.986;5.826;2022-10-13T21:13:06;101014.22;;;21.06;44.58
26563;BME280;14217;50.986;5.826;2022-10-13T21:18:09;101005.47;;;21.04;44.93
26563;BME280;14217;50.986;5.826;2022-10-13T21:23:11;101000.31;;;21.01;44.82
26563;BME280;14217;50.986;5.826;2022-10-13T21:28:13;101002.78;;;21.04;44.74
26563;BME280;14217;50.986;5.826;2022-10-13T21:33:15;101003.69;;;21.04;44.86
26563;BME280;14217;50.986;5.826;2022-10-13T21:38:17;101000.91;;;21.06;44.53
26563;BME280;14217;50.986;5.826;2022-10-13T21:43:19;101002.41;;;21.11;44.25
26563;BME280;14217;50.986;5.826;2022-10-13T21:48:24;101006.03;;;21.10;44.51
26563;BME280;14217;50.986;5.826;2022-10-13T21:53:26;101002.00;;;21.02;44.46
26563;BME280;14217;50.986;5.826;2022-10-13T21:58:28;100996.22;;;21.11;44.21
26563;BME280;14217;50.986;5.826;2022-10-13T22:03:30;100983.75;;;21.11;44.16
26563;BME280;14217;50.986;5.826;2022-10-13T22:08:37;100983.34;;;21.02;44.45
26563;BME280;14217;50.986;5.826;2022-10-13T22:13:39;100984.06;;;21.05;44.25
26563;BME280;14217;50.986;5.826;2022-10-13T22:18:41;100991.03;;;21.08;44.38
26563;BME280;14217;50.986;5.826;2022-10-13T22:23:44;100985.88;;;21.05;44.32
26563;BME280;14217;50.986;5.826;2022-10-13T22:28:46;100987.50;;;21.07;44.28
26563;BME280;14217;50.986;5.826;2022-10-13T22:33:52;100986.34;;;21.13;44.32
26563;BME280;14217;50.986;5.826;2022-10-13T22:38:57;100979.44;;;21.09;44.47
26563;BME280;14217;50.986;5.826;2022-10-13T22:44:00;100981.25;;;21.08;44.54
26563;BME280;14217;50.986;5.826;2022-10-13T22:49:03;100982.91;;;21.11;44.11
26563;BME280;14217;50.986;5.826;2022-10-13T22:54:05;100977.63;;;21.09;44.44
26563;BME280;14217;50.986;5.826;2022-10-13T22:59:08;100962.44;;;21.11;44.08
26563;BME280;14217;50.986;5.826;2022-10-13T23:04:10;100957.03;;;21.13;44.21
26563;BME280;14217;50.986;5.826;2022-10-13T23:09:12;100958.91;;;21.11;44.44
26563;BME280;14217;50.986;5.826;2022-10-13T23:14:14;100955.28;;;21.12;44.04
26563;BME280;14217;50.986;5.826;2022-10-13T23:19:16;100955.28;;;21.12;44.18
26563;BME280;14217;50.986;5.826;2022-10-13T23:24:20;100947.47;;;21.09;44.36
26563;BME280;14217;50.986;5.826;2022-10-13T23:29:22;100949.19;;;21.10;44.09
26563;BME280;14217;50.986;5.826;2022-10-13T23:34:24;100942.28;;;21.06;44.42
26563;BME280;14217;50.986;5.826;2022-10-13T23:39:26;100940.41;;;21.08;44.12
26563;BME280;14217;50.986;5.826;2022-10-13T23:44:30;100932.28;;;21.11;44.22
26563;BME280;14217;50.986;5.826;2022-10-13T23:49:32;100929.59;;;21.11;44.17
26563;BME280;14217;50.986;5.826;2022-10-13T23:54:33;100924.53;;;21.06;44.37
26563;BME280;14217;50.986;5.826;2022-10-13T23:59:35;100921.63;;;21.11;44.23
